Time;durP1;ratioP1;P1;durP2;ratioP2;P2;SDS_P1;SDS_P2;PMS_P1;PMS_P2;Temp;Humidity;BMP_temperature;BMP_pressure;BME280_temperature;BME280_humidity;BME280_pressure;Samples;Min_cycle;Max_cycle;Signal;HPM_P1;HPM_P2
2024/02/22 00:01:36;;;;;;;3.07;1.43;;;;;;;9.47;82.04;99975.41;5056795;28;20438;-72
2024/02/22 00:04:04;;;;;;;2.60;1.00;;;;;;;9.50;81.84;99965.91;5057480;28;20494;-72
2024/02/22 00:06:31;;;;;;;2.60;0.90;;;;;;;9.54;80.41;99970.38;5056717;28;20438;-72
2024/02/22 00:08:58;;;;;;;3.23;1.23;;;;;;;9.54;81.38;99967.69;5056739;28;20442;-72
2024/02/22 00:11:24;;;;;;;2.47;1.33;;;;;;;9.55;81.23;99949.53;5056615;28;20442;-72
2024/02/22 00:13:51;;;;;;;2.20;0.90;;;;;;;9.46;82.57;99940.59;5056707;28;20540;-72
2024/02/22 00:16:17;;;;;;;1.97;0.70;;;;;;;9.51;80.72;99929.63;5056242;28;20521;-72
2024/02/22 00:18:44;;;;;;;3.70;1.40;;;;;;;9.56;79.87;99915.97;5056514;28;20545;-73
2024/02/22 00:21:13;;;;;;;3.37;0.90;;;;;;;9.57;81.60;99915.69;5056416;28;20465;-72
2024/02/22 00:23:40;;;;;;;2.27;0.83;;;;;;;9.58;82.27;99914.59;5056375;28;20485;-73
2024/02/22 00:26:07;;;;;;;2.47;1.13;;;;;;;9.57;83.08;99898.69;5056338;28;20526;-73
2024/02/22 00:28:33;;;;;;;2.43;0.83;;;;;;;9.56;82.68;99892.47;5056414;28;20444;-73
2024/02/22 00:31:00;;;;;;;4.90;2.10;;;;;;;9.57;82.03;99882.47;5055966;28;20477;-73
2024/02/22 00:33:26;;;;;;;3.80;1.07;;;;;;;9.54;82.56;99883.88;5055807;28;20464;-73
2024/02/22 00:35:53;;;;;;;2.70;0.80;;;;;;;9.52;82.06;99879.91;5056326;28;20442;-73
2024/02/22 00:38:21;;;;;;;2.37;0.83;;;;;;;9.47;81.98;99867.28;5056463;28;20446;-73
2024/02/22 00:40:48;;;;;;;3.60;1.20;;;;;;;9.43;81.68;99868.22;5055814;28;20893;-73
2024/02/22 00:43:15;;;;;;;3.60;1.00;;;;;;;9.47;82.31;99866.50;5055897;28;20485;-73
2024/02/22 00:45:41;;;;;;;1.97;0.70;;;;;;;9.45;81.91;99857.91;5070518;22;20559;-67
2024/02/22 00:48:08;;;;;;;5.50;1.37;;;;;;;9.42;81.15;99858.53;5055932;28;20481;-67
2024/02/22 00:50:34;;;;;;;2.17;0.83;;;;;;;9.38;80.47;99849.44;5056140;28;20449;-66
2024/02/22 00:53:01;;;;;;;2.40;1.10;;;;;;;9.31;81.08;99845.28;5055232;28;20454;-64
2024/02/22 00:55:29;;;;;;;2.60;0.93;;;;;;;9.31;81.55;99834.47;5055809;28;20529;-64
2024/02/22 00:57:55;;;;;;;2.47;1.00;;;;;;;9.34;81.43;99835.75;5055776;28;20438;-64
2024/02/22 01:00:22;;;;;;;2.10;0.80;;;;;;;9.35;80.76;99826.56;5055687;28;20442;-64
2024/02/22 01:02:49;;;;;;;4.17;1.60;;;;;;;9.41;79.77;99810.97;5054834;28;20478;-64
2024/02/22 01:05:15;;;;;;;2.70;1.00;;;;;;;9.43;80.24;99819.56;5055601;28;20434;-64
2024/02/22 01:07:42;;;;;;;2.37;0.90;;;;;;;9.46;79.65;99805.44;5055218;28;20541;-64
2024/02/22 01:10:08;;;;;;;2.43;1.00;;;;;;;9.49;79.48;99810.22;5055187;28;20442;-64
2024/02/22 01:12:36;;;;;;;2.97;1.17;;;;;;;9.52;79.66;99806.91;5055569;28;20465;-64
2024/02/22 01:15:03;;;;;;;2.20;0.80;;;;;;;9.59;77.82;99804.53;5055391;28;20953;-64
2024/02/22 01:17:30;;;;;;;3.20;0.90;;;;;;;9.59;78.52;99805.31;5055414;28;20442;-64
2024/02/22 01:19:56;;;;;;;2.80;1.10;;;;;;;9.60;78.09;99798.00;5055375;28;20525;-64
2024/02/22 01:22:23;;;;;;;2.63;1.20;;;;;;;9.67;77.20;99789.44;5055561;28;20548;-64
2024/02/22 01:24:49;;;;;;;2.83;0.97;;;;;;;9.68;77.75;99788.31;5055205;28;20486;-64
2024/02/22 01:27:16;;;;;;;2.30;0.83;;;;;;;9.73;77.06;99774.66;5055586;28;20468;-64
2024/02/22 01:29:44;;;;;;;2.47;0.87;;;;;;;9.68;77.18;99764.00;5055405;28;20438;-64
2024/02/22 01:32:11;;;;;;;2.40;1.00;;;;;;;9.70;77.74;99759.88;5055425;28;20550;-64
2024/02/22 01:34:37;;;;;;;2.60;1.07;;;;;;;9.73;76.07;99751.09;5055075;28;20442;-64
2024/02/22 01:37:04;;;;;;;2.47;0.90;;;;;;;9.75;74.91;99742.69;5054959;28;20492;-64
2024/02/22 01:39:31;;;;;;;7.83;1.30;;;;;;;9.78;73.67;99742.88;5054953;28;20441;-64
2024/02/22 01:41:57;;;;;;;1.90;0.73;;;;;;;9.81;74.54;99736.81;5054936;28;20535;-64
2024/02/22 01:44:28;;;;;;;4.33;1.00;;;;;;;9.84;74.65;99730.78;5054485;28;21033;-64
2024/02/22 01:46:56;;;;;;;2.50;1.00;;;;;;;9.80;75.10;99716.28;5055324;28;20429;-64
2024/02/22 01:49:24;;;;;;;2.10;0.77;;;;;;;9.77;75.96;99716.91;5055213;28;20448;-64
2024/02/22 01:51:54;;;;;;;2.23;0.83;;;;;;;9.77;76.38;99711.50;5054805;28;20464;-64
2024/02/22 01:54:20;;;;;;;2.50;1.07;;;;;;;9.77;75.29;99708.00;5055053;28;20529;-64
2024/02/22 01:56:47;;;;;;;2.77;0.60;;;;;;;9.68;74.63;99705.28;5054919;28;20541;-64
2024/02/22 01:59:15;;;;;;;1.93;0.67;;;;;;;9.61;75.30;99694.16;5054623;28;20525;-64
2024/02/22 02:01:42;;;;;;;2.33;0.80;;;;;;;9.59;76.28;99693.69;5054256;28;20532;-64
2024/02/22 02:04:12;;;;;;;1.70;0.50;;;;;;;9.51;76.75;99676.31;5054580;28;20489;-64
2024/02/22 02:06:40;;;;;;;2.03;0.77;;;;;;;9.59;75.23;99677.44;5054141;28;20433;-64
2024/02/22 02:09:08;;;;;;;1.77;0.60;;;;;;;9.68;73.45;99666.66;5054575;28;20442;-64
2024/02/22 02:11:37;;;;;;;1.80;0.50;;;;;;;9.77;73.04;99665.53;5054280;28;20453;-64
2024/02/22 02:14:04;;;;;;;2.03;0.57;;;;;;;9.66;74.42;99653.47;5054010;28;20482;-64
2024/02/22 02:16:31;;;;;;;1.97;0.67;;;;;;;9.70;75.04;99649.00;5054099;28;20516;-64
2024/02/22 02:18:57;;;;;;;3.13;0.70;;;;;;;9.75;73.99;99646.13;5054168;28;20476;-64
2024/02/22 02:21:31;;;;;;;2.00;0.60;;;;;;;9.70;75.95;99632.78;5054154;28;20456;-64
2024/02/22 02:24:13;;;;;;;2.60;0.80;;;;;;;9.72;75.54;99629.75;5054137;28;20501;-64
2024/02/22 02:26:41;;;;;;;1.70;0.50;;;;;;;9.73;75.39;99613.19;5054487;28;20480;-64
2024/02/22 02:29:08;;;;;;;1.87;0.67;;;;;;;9.77;75.15;99611.44;5054076;28;20440;-64
2024/02/22 02:31:34;;;;;;;1.63;0.43;;;;;;;9.82;74.63;99607.78;5053676;28;20949;-64
2024/02/22 02:34:01;;;;;;;1.90;0.60;;;;;;;9.84;74.38;99600.16;5053690;28;20461;-64
2024/02/22 02:36:28;;;;;;;2.10;0.70;;;;;;;9.88;74.77;99589.50;5053971;28;20449;-64
2024/02/22 02:38:54;;;;;;;2.17;0.70;;;;;;;9.78;76.34;99574.38;5053904;28;20440;-64
2024/02/22 02:41:21;;;;;;;2.23;0.60;;;;;;;9.89;73.35;99577.56;5054126;28;20549;-64
2024/02/22 02:43:49;;;;;;;2.80;0.60;;;;;;;9.96;74.35;99580.56;5054060;28;20486;-65
2024/02/22 02:46:15;;;;;;;1.80;0.60;;;;;;;9.95;74.79;99568.94;5054241;28;20525;-65
2024/02/22 02:48:42;;;;;;;2.90;0.60;;;;;;;9.99;73.80;99561.78;5053737;28;20470;-65
2024/02/22 02:51:08;;;;;;;3.30;1.03;;;;;;;10.04;73.71;99563.50;5053668;28;20529;-65
2024/02/22 02:53:35;;;;;;;2.87;0.80;;;;;;;10.08;73.28;99556.34;5053197;28;20970;-65
2024/02/22 02:56:02;;;;;;;3.70;0.87;;;;;;;10.13;72.05;99548.03;5053658;28;20489;-65
2024/02/22 02:58:28;;;;;;;2.50;0.97;;;;;;;10.14;73.09;99544.25;5054093;28;20445;-65
2024/02/22 03:00:56;;;;;;;2.63;1.10;;;;;;;10.10;74.16;99538.69;5053627;28;20438;-65
2024/02/22 03:03:23;;;;;;;2.30;0.80;;;;;;;10.09;74.36;99531.69;5053511;28;20510;-65
2024/02/22 03:05:49;;;;;;;2.53;0.70;;;;;;;10.10;73.71;99522.44;5053268;28;21005;-65
2024/02/22 03:08:16;;;;;;;2.00;0.70;;;;;;;10.17;72.20;99527.34;5053474;28;20540;-65
2024/02/22 03:10:43;;;;;;;6.03;0.67;;;;;;;10.21;71.89;99516.66;5053117;28;20446;-65
2024/02/22 03:13:11;;;;;;;2.97;0.87;;;;;;;10.22;72.32;99513.63;5053352;28;20542;-65
2024/02/22 03:15:38;;;;;;;2.30;0.90;;;;;;;10.20;72.99;99498.84;5053067;28;20449;-65
2024/02/22 03:18:08;;;;;;;2.57;0.60;;;;;;;10.18;74.28;99498.38;5053235;28;20521;-65
2024/02/22 03:20:35;;;;;;;2.13;0.60;;;;;;;10.20;73.60;99493.44;5053717;28;20438;-65
2024/02/22 03:23:02;;;;;;;2.23;0.60;;;;;;;10.28;72.28;99506.97;5053277;28;20815;-65
2024/02/22 03:25:28;;;;;;;2.00;0.70;;;;;;;10.30;73.35;99491.19;5053228;28;20481;-65
2024/02/22 03:27:58;;;;;;;1.60;0.40;;;;;;;10.33;73.39;99495.94;5052964;28;21017;-63
2024/02/22 03:30:25;;;;;;;3.10;0.90;;;;;;;10.37;73.70;99487.19;5053315;28;20478;-64
2024/02/22 03:32:52;;;;;;;2.40;0.70;;;;;;;10.35;74.35;99482.88;5053473;28;20454;-64
2024/02/22 03:35:22;;;;;;;2.27;0.40;;;;;;;10.46;74.29;99479.81;5052846;28;20798;-64
2024/02/22 03:37:49;;;;;;;2.10;0.63;;;;;;;10.60;74.24;99483.84;5053501;28;20512;-63
2024/02/22 03:40:16;;;;;;;2.53;1.07;;;;;;;10.58;74.99;99477.16;5052890;28;20434;-63
2024/02/22 03:42:42;;;;;;;1.90;0.60;;;;;;;10.65;75.20;99472.03;5053373;28;20541;-64
2024/02/22 03:45:09;;;;;;;1.90;0.80;;;;;;;10.58;76.06;99477.97;5053257;28;21005;-63
2024/02/22 03:47:36;;;;;;;1.90;0.60;;;;;;;10.53;77.68;99466.53;5053258;28;20753;-64
2024/02/22 03:50:04;;;;;;;3.97;0.70;;;;;;;10.59;78.16;99463.31;5053368;28;20465;-63
2024/02/22 03:52:32;;;;;;;2.20;0.90;;;;;;;10.54;80.23;99457.31;5052999;28;20466;-63
2024/02/22 03:54:59;;;;;;;4.23;0.60;;;;;;;10.51;80.06;99456.03;5053034;28;20517;-63
2024/02/22 03:57:25;;;;;;;1.80;0.60;;;;;;;10.51;80.32;99447.13;5053056;28;20439;-64
2024/02/22 03:59:52;;;;;;;2.90;0.80;;;;;;;10.50;80.67;99442.84;5053013;28;20445;-64
2024/02/22 04:02:19;;;;;;;2.20;0.90;;;;;;;10.52;80.66;99446.00;5052821;28;20476;-63
2024/02/22 04:04:50;;;;;;;1.70;0.50;;;;;;;10.51;80.53;99439.00;5053221;28;20477;-65
2024/02/22 04:07:16;;;;;;;2.50;0.70;;;;;;;10.50;81.33;99440.13;5053277;28;20426;-65
2024/02/22 04:09:45;;;;;;;1.90;0.60;;;;;;;10.44;81.99;99438.72;5053255;28;20525;-64
2024/02/22 04:12:11;;;;;;;2.07;0.73;;;;;;;10.44;82.13;99433.31;5052812;28;20465;-64
2024/02/22 04:14:38;;;;;;;2.47;1.07;;;;;;;10.40;82.76;99437.78;5052806;28;20430;-64
2024/02/22 04:17:05;;;;;;;2.17;1.00;;;;;;;10.40;82.84;99429.66;5052888;28;20524;-64
2024/02/22 04:19:31;;;;;;;1.80;0.50;;;;;;;10.38;83.42;99429.22;5052923;28;20540;-64
2024/02/22 04:21:58;;;;;;;1.67;0.43;;;;;;;10.34;83.48;99418.25;5052787;28;20524;-64
2024/02/22 04:24:25;;;;;;;2.27;0.57;;;;;;;10.38;83.47;99412.97;5052780;28;20920;-64
2024/02/22 04:26:54;;;;;;;2.63;0.90;;;;;;;10.29;84.83;99405.69;5052931;28;20522;-64
2024/02/22 04:29:21;;;;;;;2.50;0.73;;;;;;;10.25;85.07;99399.34;5054801;28;20446;-64
2024/02/22 04:31:48;;;;;;;1.80;0.50;;;;;;;10.34;84.33;99394.66;5056657;28;20458;-64
2024/02/22 04:34:14;;;;;;;1.90;0.60;;;;;;;10.30;84.67;99395.66;5056855;28;20521;-64
2024/02/22 04:36:41;;;;;;;2.57;0.77;;;;;;;10.22;86.43;99394.56;5056378;28;20760;-64
2024/02/22 04:39:09;;;;;;;2.53;0.97;;;;;;;10.23;86.14;99390.75;5056509;28;20476;-64
2024/02/22 04:41:36;;;;;;;2.90;0.80;;;;;;;10.17;87.34;99393.97;5056260;28;20446;-64
2024/02/22 04:44:04;;;;;;;2.20;0.87;;;;;;;10.18;86.36;99388.25;5055514;28;20482;-64
2024/02/22 04:46:32;;;;;;;2.20;0.90;;;;;;;10.20;86.25;99391.41;5055742;28;20890;-64
2024/02/22 04:49:00;;;;;;;2.00;0.70;;;;;;;10.23;86.31;99384.53;5055635;28;21054;-64
2024/02/22 04:51:27;;;;;;;2.00;0.73;;;;;;;10.20;86.38;99391.41;5055880;28;20517;-64
2024/02/22 04:53:54;;;;;;;2.23;0.70;;;;;;;10.21;86.47;99378.66;5056330;28;20466;-64
2024/02/22 04:56:20;;;;;;;2.50;0.70;;;;;;;10.15;87.39;99367.25;5055481;28;20442;-64
2024/02/22 04:58:47;;;;;;;2.50;0.73;;;;;;;10.14;87.30;99371.06;5055442;28;20437;-64
2024/02/22 05:01:15;;;;;;;2.13;0.80;;;;;;;10.10;88.70;99362.81;5056352;28;20442;-64
2024/02/22 05:03:41;;;;;;;1.90;0.50;;;;;;;10.06;89.30;99375.41;5055442;28;20549;-64
2024/02/22 05:06:08;;;;;;;1.90;0.70;;;;;;;10.12;88.71;99373.28;5055353;28;20488;-64
2024/02/22 05:08:36;;;;;;;1.80;0.60;;;;;;;10.08;89.52;99365.03;5055920;28;20438;-63
2024/02/22 05:11:02;;;;;;;2.30;0.63;;;;;;;10.05;89.71;99363.00;5055554;28;20481;-63
2024/02/22 05:13:29;;;;;;;2.07;0.90;;;;;;;10.02;89.98;99357.44;5055478;28;20501;-63
2024/02/22 05:15:56;;;;;;;3.63;1.20;;;;;;;9.96;90.89;99345.22;5055365;28;20439;-63
2024/02/22 05:18:24;;;;;;;2.73;0.80;;;;;;;9.93;91.83;99335.84;5056162;28;20441;-63
2024/02/22 05:20:51;;;;;;;1.90;0.40;;;;;;;9.89;92.31;99329.50;5055728;28;20439;-63
2024/02/22 05:23:17;;;;;;;2.50;0.80;;;;;;;9.80;93.27;99328.78;5055179;28;20836;-63
2024/02/22 05:25:44;;;;;;;2.00;0.60;;;;;;;9.82;93.26;99330.00;5054793;28;21047;-64
2024/02/22 05:28:10;;;;;;;2.00;0.80;;;;;;;9.76;94.26;99328.63;5055643;28;20438;-64
2024/02/22 05:30:37;;;;;;;3.13;1.43;;;;;;;9.72;95.66;99314.19;5055109;28;20451;-64
2024/02/22 05:33:05;;;;;;;1.77;0.53;;;;;;;9.63;97.14;99316.13;5054602;28;20541;-64
2024/02/22 05:35:33;;;;;;;3.40;0.53;;;;;;;9.66;96.76;99312.78;5054795;28;20504;-66
2024/02/22 05:37:59;;;;;;;1.97;0.70;;;;;;;9.64;96.69;99311.50;5054950;28;20523;-64
2024/02/22 05:40:26;;;;;;;2.37;0.90;;;;;;;9.56;97.32;99305.03;5054785;28;20444;-64
2024/02/22 05:42:53;;;;;;;2.90;1.00;;;;;;;9.56;97.83;99303.13;5054400;28;21029;-64
2024/02/22 05:45:34;;;;;;;2.30;0.70;;;;;;;9.45;99.48;99296.50;5054144;28;20572;-64
2024/02/22 05:48:01;;;;;;;2.00;0.60;;;;;;;9.47;99.56;99299.66;5054930;28;20509;-64
2024/02/22 05:50:27;;;;;;;2.30;0.73;;;;;;;9.50;99.13;99296.31;5054901;28;20443;-63
2024/02/22 05:52:55;;;;;;;1.90;0.50;;;;;;;9.50;99.04;99287.41;5054452;28;20462;-64
2024/02/22 05:55:22;;;;;;;2.17;0.70;;;;;;;9.45;100.00;99279.50;5054241;28;20948;-63
2024/02/22 05:57:49;;;;;;;2.10;0.70;;;;;;;9.47;99.45;99278.03;5054044;28;20811;-64
2024/02/22 06:00:16;;;;;;;2.27;0.53;;;;;;;9.41;100.00;99281.25;5054070;28;20481;-63
2024/02/22 06:02:44;;;;;;;2.07;0.70;;;;;;;9.35;100.00;99276.03;5054057;28;20988;-63
2024/02/22 06:05:10;;;;;;;2.00;0.50;;;;;;;9.37;100.00;99261.41;5054452;28;20484;-63
2024/02/22 06:07:37;;;;;;;2.10;0.70;;;;;;;9.35;100.00;99261.75;5054388;28;20448;-63
2024/02/22 06:10:08;;;;;;;1.90;0.50;;;;;;;9.34;100.00;99263.66;5054302;28;20438;-62
2024/02/22 06:12:35;;;;;;;2.10;0.73;;;;;;;9.31;100.00;99263.50;5054242;28;20580;-62
2024/02/22 06:15:03;;;;;;;2.17;0.73;;;;;;;9.31;100.00;99258.88;5054222;28;20875;-62
2024/02/22 06:17:30;;;;;;;6.90;1.40;;;;;;;9.25;100.00;99259.38;5053694;28;20442;-62
2024/02/22 06:19:57;;;;;;;3.17;1.13;;;;;;;9.25;100.00;99249.41;5054532;28;20438;-63
2024/02/22 06:22:23;;;;;;;3.23;0.80;;;;;;;9.28;100.00;99248.72;5053764;28;20541;-62
2024/02/22 06:24:50;;;;;;;1.93;0.53;;;;;;;9.26;100.00;99247.47;5054021;28;20937;-62
2024/02/22 06:27:18;;;;;;;2.77;0.93;;;;;;;9.25;100.00;99243.16;5054142;28;20532;-63
2024/02/22 06:29:44;;;;;;;2.20;0.70;;;;;;;9.27;100.00;99243.66;5053762;28;20441;-62
2024/02/22 06:32:11;;;;;;;2.00;0.67;;;;;;;9.27;100.00;99238.25;5053957;28;20884;-62
2024/02/22 06:34:37;;;;;;;2.10;0.60;;;;;;;9.26;100.00;99236.69;5054580;28;20523;-62
2024/02/22 06:37:04;;;;;;;2.00;0.50;;;;;;;9.27;100.00;99236.34;5053973;28;20934;-62
2024/02/22 06:39:31;;;;;;;2.13;0.90;;;;;;;9.29;100.00;99228.69;5053602;28;20439;-63
2024/02/22 06:41:57;;;;;;;1.90;0.70;;;;;;;9.26;100.00;99221.25;5053686;28;20512;-63
2024/02/22 06:44:25;;;;;;;1.90;0.60;;;;;;;9.28;100.00;99221.72;5053514;28;20496;-66
2024/02/22 06:46:52;;;;;;;2.30;0.73;;;;;;;9.25;100.00;99216.97;5053817;28;20784;-65
2024/02/22 06:49:19;;;;;;;2.20;0.73;;;;;;;9.25;100.00;99222.38;5053739;28;20537;-65
2024/02/22 06:51:46;;;;;;;1.90;0.63;;;;;;;9.21;100.00;99215.22;5052835;28;20441;-65
2024/02/22 06:54:13;;;;;;;2.70;0.80;;;;;;;9.19;100.00;99206.66;5053621;28;20531;-63
2024/02/22 06:56:40;;;;;;;2.50;0.70;;;;;;;9.14;100.00;99204.94;5053588;28;20538;-63
2024/02/22 06:59:08;;;;;;;2.57;0.93;;;;;;;9.14;100.00;99204.16;5053326;28;20981;-63
2024/02/22 07:01:36;;;;;;;2.00;0.70;;;;;;;9.13;100.00;99197.97;5053295;28;20495;-65
2024/02/22 07:04:03;;;;;;;2.30;0.70;;;;;;;9.09;100.00;99202.41;5053468;28;20449;-64
2024/02/22 07:06:31;;;;;;;2.47;0.70;;;;;;;9.07;100.00;99193.84;5053426;28;20516;-65
2024/02/22 07:08:58;;;;;;;2.10;0.83;;;;;;;9.11;100.00;99192.06;5053408;28;20482;-64
2024/02/22 07:11:24;;;;;;;2.20;0.90;;;;;;;9.08;100.00;99185.44;5053597;28;20446;-65
2024/02/22 07:13:51;;;;;;;2.40;0.70;;;;;;;9.06;100.00;99184.16;5053490;28;20500;-64
2024/02/22 07:16:17;;;;;;;2.23;0.93;;;;;;;9.06;100.00;99176.84;5053393;28;20477;-64
2024/02/22 07:18:45;;;;;;;2.73;0.80;;;;;;;9.08;100.00;99179.25;5053163;28;20806;-64
2024/02/22 07:21:13;;;;;;;1.80;0.50;;;;;;;9.03;100.00;99176.69;5053049;28;20521;-65
2024/02/22 07:23:40;;;;;;;2.10;0.77;;;;;;;9.02;100.00;99170.50;5053463;28;20470;-65
2024/02/22 07:26:07;;;;;;;1.80;0.50;;;;;;;9.03;100.00;99171.28;5053268;28;20486;-64
2024/02/22 07:28:35;;;;;;;1.97;0.60;;;;;;;9.03;100.00;99165.88;5052942;28;20473;-64
2024/02/22 07:31:02;;;;;;;2.20;0.70;;;;;;;9.00;100.00;99161.16;5053565;28;20507;-64
2024/02/22 07:33:29;;;;;;;1.80;0.60;;;;;;;9.00;100.00;99167.34;5053187;28;20512;-64
2024/02/22 07:35:57;;;;;;;1.90;0.60;;;;;;;8.98;100.00;99156.06;5052894;28;20445;-64
2024/02/22 07:38:24;;;;;;;2.00;0.70;;;;;;;8.98;100.00;99158.75;5053537;28;20448;-65
2024/02/22 07:40:51;;;;;;;1.80;0.60;;;;;;;8.98;100.00;99145.25;5053399;28;20881;-66
2024/02/22 07:43:18;;;;;;;2.17;0.80;;;;;;;9.00;100.00;99147.66;5053213;28;20546;-66
2024/02/22 07:45:45;;;;;;;2.00;0.70;;;;;;;9.01;100.00;99138.44;5052815;28;20996;-67
2024/02/22 07:48:12;;;;;;;2.23;0.80;;;;;;;9.02;100.00;99146.19;5053188;28;20529;-67
2024/02/22 07:50:38;;;;;;;2.07;0.70;;;;;;;9.03;100.00;99138.88;5053028;28;20524;-67
2024/02/22 07:53:06;;;;;;;2.30;0.87;;;;;;;9.07;100.00;99135.22;5053680;28;20553;-66
2024/02/22 07:55:33;;;;;;;2.00;0.77;;;;;;;9.04;100.00;99140.50;5053004;28;20457;-67
2024/02/22 07:58:00;;;;;;;3.40;1.03;;;;;;;9.05;100.00;99131.25;5053336;28;20434;-66
2024/02/22 08:00:27;;;;;;;1.90;0.70;;;;;;;9.05;100.00;99128.56;5053327;28;20529;-66
2024/02/22 08:02:53;;;;;;;1.60;0.50;;;;;;;8.98;100.00;99128.28;5052965;28;20480;-66
2024/02/22 08:05:20;;;;;;;2.07;0.90;;;;;;;9.03;100.00;99128.91;5057016;28;20482;-66
2024/02/22 08:07:47;;;;;;;3.50;1.33;;;;;;;9.06;100.00;99124.72;5056856;28;20442;-66
2024/02/22 08:10:15;;;;;;;2.27;0.87;;;;;;;9.05;100.00;99125.84;5056881;28;20946;-66
2024/02/22 08:12:41;;;;;;;2.63;0.93;;;;;;;9.05;100.00;99120.47;5056859;28;20542;-66
2024/02/22 08:15:09;;;;;;;2.10;0.70;;;;;;;9.03;100.00;99118.09;5056649;28;20528;-66
2024/02/22 08:17:38;;;;;;;2.00;0.83;;;;;;;9.09;100.00;99122.19;5056304;28;20941;-66
2024/02/22 08:20:06;;;;;;;2.77;1.10;;;;;;;9.09;100.00;99107.88;5056907;28;20453;-66
2024/02/22 08:22:32;;;;;;;2.37;0.90;;;;;;;9.06;100.00;99108.53;5056406;28;20517;-66
2024/02/22 08:24:59;;;;;;;1.80;0.50;;;;;;;9.06;100.00;99108.53;5056609;28;20529;-66
2024/02/22 08:27:27;;;;;;;2.20;0.80;;;;;;;9.09;100.00;99095.16;5056394;28;20446;-66
2024/02/22 08:29:54;;;;;;;2.00;0.60;;;;;;;9.04;100.00;99102.69;5056688;28;20870;-64
2024/02/22 08:32:20;;;;;;;1.80;0.63;;;;;;;9.10;100.00;99102.16;5056235;28;20561;-63
2024/02/22 08:34:47;;;;;;;1.80;0.60;;;;;;;9.15;100.00;99098.47;5056289;28;20462;-63
2024/02/22 08:37:13;;;;;;;2.07;0.70;;;;;;;9.13;100.00;99094.53;5056398;28;20528;-65
2024/02/22 08:39:40;;;;;;;2.30;0.70;;;;;;;9.14;100.00;99094.19;5055971;28;20438;-66
2024/02/22 08:42:07;;;;;;;3.33;1.10;;;;;;;9.15;100.00;99094.97;5056325;28;20454;-66
2024/02/22 08:44:35;;;;;;;1.90;0.70;;;;;;;9.17;100.00;99084.66;5055801;28;20458;-66
2024/02/22 08:47:03;;;;;;;1.83;0.70;;;;;;;9.18;100.00;99087.00;5056258;28;20493;-66
2024/02/22 08:49:30;;;;;;;1.70;0.60;;;;;;;9.15;100.00;99087.66;5055920;28;20450;-67
2024/02/22 08:51:56;;;;;;;1.70;0.50;;;;;;;9.13;100.00;99073.69;5055927;28;20458;-66
2024/02/22 08:54:23;;;;;;;2.57;0.80;;;;;;;9.15;100.00;99078.75;5055877;28;20525;-66
2024/02/22 08:56:50;;;;;;;2.20;0.80;;;;;;;9.19;100.00;99077.78;5055980;28;20513;-66
2024/02/22 08:59:17;;;;;;;3.10;0.93;;;;;;;9.14;100.00;99075.28;5055867;28;20442;-66
2024/02/22 09:01:47;;;;;;;2.00;1.00;;;;;;;9.13;100.00;99071.00;5055774;28;20481;-66
2024/02/22 09:04:14;;;;;;;2.53;0.60;;;;;;;9.19;100.00;99068.88;5055738;28;20426;-66
2024/02/22 09:06:42;;;;;;;3.50;1.50;;;;;;;9.15;100.00;99062.56;5055579;28;20485;-67
2024/02/22 09:09:08;;;;;;;2.47;0.90;;;;;;;9.15;100.00;99063.34;5055545;28;20442;-67
2024/02/22 09:11:37;;;;;;;2.10;0.80;;;;;;;9.11;100.00;99059.72;5055253;28;20444;-67
2024/02/22 09:14:04;;;;;;;2.20;0.73;;;;;;;9.14;100.00;99059.06;5055009;28;20974;-67
2024/02/22 09:16:31;;;;;;;2.23;0.93;;;;;;;9.17;100.00;99055.72;5055830;28;20547;-64
2024/02/22 09:18:59;;;;;;;2.50;1.20;;;;;;;9.19;100.00;99052.69;5055758;28;20446;-64
2024/02/22 09:21:26;;;;;;;1.80;0.60;;;;;;;9.21;100.00;99045.03;5055308;28;20525;-64
2024/02/22 09:23:52;;;;;;;2.30;1.00;;;;;;;9.27;100.00;99047.22;5055134;28;20459;-64
2024/02/22 09:26:19;;;;;;;2.50;1.20;;;;;;;9.31;100.00;99045.44;5055524;28;20478;-64
2024/02/22 09:28:46;;;;;;;2.60;1.17;;;;;;;9.31;100.00;99048.13;5055569;28;20521;-65
2024/02/22 09:31:13;;;;;;;2.27;0.73;;;;;;;9.32;100.00;99038.13;5055169;28;20444;-64
2024/02/22 09:33:40;;;;;;;2.33;1.07;;;;;;;9.34;100.00;99036.69;5055352;28;20469;-64
2024/02/22 09:36:09;;;;;;;2.97;1.30;;;;;;;9.35;100.00;99040.94;5055476;28;20430;-64
2024/02/22 09:38:36;;;;;;;1.87;0.63;;;;;;;9.35;100.00;99040.94;5055445;28;20530;-65
2024/02/22 09:41:02;;;;;;;2.30;1.00;;;;;;;9.40;100.00;99033.75;5055047;28;20818;-64
2024/02/22 09:43:30;;;;;;;2.10;1.10;;;;;;;9.41;100.00;99035.34;5054800;28;20462;-67
2024/02/22 09:45:56;;;;;;;2.67;1.03;;;;;;;9.43;100.00;99033.09;5055093;28;20482;-65
2024/02/22 09:48:23;;;;;;;2.50;1.30;;;;;;;9.46;100.00;99032.44;5055129;28;20464;-67
2024/02/22 09:50:50;;;;;;;2.13;0.80;;;;;;;9.46;100.00;99027.03;5054799;28;20473;-65
2024/02/22 09:53:19;;;;;;;3.40;0.93;;;;;;;9.49;100.00;99021.75;5054443;28;20465;-64
2024/02/22 09:55:47;;;;;;;2.40;1.00;;;;;;;9.52;100.00;99025.72;5054986;28;20430;-64
2024/02/22 09:58:15;;;;;;;2.30;0.97;;;;;;;9.58;100.00;99025.16;5054432;28;21014;-65
2024/02/22 10:00:41;;;;;;;2.30;1.13;;;;;;;9.57;100.00;99022.81;5054891;28;20434;-66
2024/02/22 10:03:08;;;;;;;2.97;1.00;;;;;;;9.59;100.00;99020.53;5055178;28;20974;-67
2024/02/22 10:05:37;;;;;;;1.80;0.67;;;;;;;9.60;100.00;99020.19;5054645;28;20442;-64
2024/02/22 10:08:11;;;;;;;2.07;0.80;;;;;;;9.64;100.00;99011.44;5054818;28;20445;-67
2024/02/22 10:10:40;;;;;;;2.30;0.70;;;;;;;9.63;100.00;99018.75;5054402;28;20461;-64
2024/02/22 10:13:07;;;;;;;2.20;1.30;;;;;;;9.63;100.00;99012.56;5054322;28;20501;-65
2024/02/22 10:15:33;;;;;;;2.20;0.80;;;;;;;9.64;100.00;99014.91;5054350;28;20520;-65
2024/02/22 10:18:00;;;;;;;2.80;1.17;;;;;;;9.63;100.00;99004.44;5054345;28;20434;-66
2024/02/22 10:20:32;;;;;;;1.83;0.70;;;;;;;9.67;100.00;99014.25;5054623;28;20529;-66
2024/02/22 10:23:09;;;;;;;3.27;1.23;;;;;;;9.77;100.00;99004.94;5054163;28;20550;-66
2024/02/22 10:25:36;;;;;;;2.53;1.20;;;;;;;9.78;100.00;99009.22;5054262;28;20426;-66
2024/02/22 10:28:05;;;;;;;2.47;0.90;;;;;;;9.83;100.00;99000.91;5053595;28;20534;-64
2024/02/22 10:30:33;;;;;;;2.60;1.17;;;;;;;9.81;100.00;98995.81;5054064;28;20814;-65
2024/02/22 10:33:02;;;;;;;2.13;0.93;;;;;;;9.86;100.00;98989.41;5053592;28;20959;-65
2024/02/22 10:35:29;;;;;;;2.47;0.80;;;;;;;9.86;100.00;98984.00;5054042;28;20541;-65
2024/02/22 10:37:56;;;;;;;2.43;1.03;;;;;;;9.89;100.00;98977.13;5053929;28;20438;-64
2024/02/22 10:40:26;;;;;;;2.10;0.80;;;;;;;9.86;100.00;98976.66;5054263;28;20438;-65
2024/02/22 10:42:53;;;;;;;2.27;0.83;;;;;;;9.90;100.00;98965.97;5053732;28;20554;-66
2024/02/22 10:45:21;;;;;;;2.10;0.73;;;;;;;9.96;100.00;98963.84;5053519;28;20458;-64
2024/02/22 10:47:50;;;;;;;2.53;0.70;;;;;;;10.05;100.00;98959.91;5053700;28;20486;-64
2024/02/22 10:50:20;;;;;;;2.73;0.90;;;;;;;10.09;100.00;98946.47;5053810;28;20438;-65
2024/02/22 10:52:49;;;;;;;2.53;0.93;;;;;;;10.15;100.00;98950.56;5053644;28;20462;-64
2024/02/22 10:55:16;;;;;;;2.10;1.00;;;;;;;10.22;100.00;98939.94;5054040;28;20529;-65
2024/02/22 10:57:45;;;;;;;2.03;0.73;;;;;;;10.33;100.00;98941.13;5053282;28;20926;-65
2024/02/22 11:00:14;;;;;;;2.63;1.10;;;;;;;10.44;100.00;98925.19;5053524;28;20520;-65
2024/02/22 11:02:44;;;;;;;2.60;1.10;;;;;;;10.51;100.00;98928.13;5053188;28;20462;-65
2024/02/22 11:05:12;;;;;;;2.07;0.67;;;;;;;10.53;100.00;98922.34;5053577;28;20470;-65
2024/02/22 11:07:50;;;;;;;2.10;0.83;;;;;;;10.53;100.00;98906.91;5053873;28;20477;-65
2024/02/22 11:10:17;;;;;;;1.90;0.80;;;;;;;10.62;100.00;98912.19;5053523;28;20422;-65
2024/02/22 11:12:44;;;;;;;2.87;1.10;;;;;;;10.67;100.00;98903.84;5053192;28;20494;-64
2024/02/22 11:15:11;;;;;;;2.83;0.80;;;;;;;10.62;100.00;98898.63;5053178;28;20882;-64
2024/02/22 11:17:39;;;;;;;1.80;0.67;;;;;;;10.66;100.00;98894.13;5053466;28;20440;-64
2024/02/22 11:20:11;;;;;;;1.90;0.57;;;;;;;10.73;100.00;98891.63;5053493;28;20930;-65
2024/02/22 11:22:38;;;;;;;2.40;0.87;;;;;;;10.69;100.00;98885.31;5053394;28;20890;-64
2024/02/22 11:25:07;;;;;;;1.93;0.60;;;;;;;10.71;100.00;98879.56;5053616;28;20488;-64
2024/02/22 11:27:34;;;;;;;2.00;0.77;;;;;;;10.74;100.00;98868.03;5052991;28;20486;-64
2024/02/22 11:30:12;;;;;;;1.90;0.80;;;;;;;10.78;100.00;98875.13;5053502;28;20469;-64
2024/02/22 11:32:39;;;;;;;2.30;0.90;;;;;;;10.82;100.00;98867.09;5052952;28;20996;-65
2024/02/22 11:35:07;;;;;;;1.90;0.70;;;;;;;10.87;100.00;98864.16;5053787;28;20482;-64